Strona główna
METAR-TAF:

METAR-TAF

Lotnisko :

Baza lotnicza Volkel

Uden, Holandia

Szerokość geograficzna: 51-39N, Długość geograficzna: 005-42E, wysokość: 22 m

Aktualna obserwacja pogody

Raport powstał 29 minut temu, godzina 19:55 UTC
Wiatr 3 kt od zachodnio-północny zachód
Temperatura 3°C
Wilgotność 87%
Ciśnienie 1045 hPa
Widzialność 10 km lub więcej

METAR: EHVK 191955Z AUTO 30003KT 9999 NCD 03/01 Q1045 BLU

czas: 21:24 (20:24 UTC)

Prognoza

Raport powstał 3 godziny i 3 minut temu, godzina 17:21 UTC
Prognoza ważna od 19 godzina 18 UTC do 20 godzina 06 UTC
Wiatr 5 kt od północno-północny zachód
Widzialność 10 km lub więcej
Mało chmury na wysokości 4000 ft
Stopniowe zmiany
od 19 godzina 22 UTC do 20 godzina 01 UTC
Widzialność: 4000 m
zamglenie
Stopniowe zmiany
od 20 godzina 01 UTC do 20 godzina 04 UTC
Wiatr 3 kt z kierunków zmiennych
Widzialność: 0600 m
marznąca mgła

TAF: EHVK 191721Z 1918/2006 34005KT 9999 FEW040 BECMG 1922/2001 4000 BR BECMG 2001/2004 VRB03KT 0600 FZFG

Obserwacja i prognoza pogody dla ponad 4000 lotnisk (raport METAR i TAF).

Dostępne stacje oznaczono żółtymi i czerwonymi punktami na mapie.

Najedź kursorem aby zobaczyć nazwę stacji.

Kliknij aby zobaczyć obserwacje i prognozy pogody.

Aby zmienić mapę: kliknij na zielony przycisk z czarnym krzyżykiem, aby powiększyć; na zielony przycisk z myślnikiem, aby pomniejszyć; na zielone strzałki, aby przejść do map sąsiednich.


METAR-TAF: